Huntington, Wisconsin
Current Conditions -  °F | °C
As of 7:35 AM on Sunday 21 Dec 2014 (Local Time) from KRNH Reporting Station
Haze Haze  
Wind Chill: 24°   Ceiling: 400
Heat Index: 32°   Visibility: 2.5mi
Dew Point: 32°   Wind: 9mph
Humidity: 100%   Direction: 150°SSE
Pressure: 29.93"   Gusts: NA
Location:  45.1804°N, 92.551°W
Report Text: KRNH 211335Z AUTO 15008KT 2 1/2SM BR OVC004 00/00 A2993 RMK AO2 T10011001
Loading
Personal Weather Stations






























Interactive Weather Map New forecast layout! Learn more

10-Day Weather Forecast

Advertisements
Track Severe Weather on mobile